createdAt,value
2017-01-15T00:00:45.827Z,16.52
2017-01-15T00:01:56.571Z,16.42
2017-01-15T00:03:06.913Z,16.52
2017-01-15T00:04:17.642Z,16.52
2017-01-15T00:05:28.368Z,16.52
2017-01-15T00:06:38.702Z,16.52
2017-01-15T00:07:48.644Z,16.42
2017-01-15T00:08:58.577Z,16.03
2017-01-15T00:10:09.307Z,16.13
2017-01-15T00:11:20.032Z,16.03
2017-01-15T00:12:30.356Z,16.42
2017-01-15T00:13:41.085Z,16.42
2017-01-15T00:14:51.799Z,16.32
2017-01-15T00:16:01.730Z,16.42
2017-01-15T00:17:12.455Z,16.42
2017-01-15T00:18:22.384Z,16.32
2017-01-15T00:19:33.115Z,16.42
2017-01-15T00:20:43.833Z,16.42
2017-01-15T00:21:54.160Z,16.42
2017-01-15T00:23:04.516Z,16.32
2017-01-15T00:24:14.854Z,16.32
2017-01-15T00:25:25.569Z,16.32
2017-01-15T00:26:36.292Z,16.42
2017-01-15T00:27:46.618Z,16.42
2017-01-15T00:28:56.938Z,16.42
2017-01-15T00:30:07.268Z,16.42
2017-01-15T00:31:17.589Z,16.32
2017-01-15T00:32:27.511Z,16.32
2017-01-15T00:33:37.841Z,16.23
2017-01-15T00:34:47.780Z,16.42
2017-01-15T00:35:58.497Z,16.23
2017-01-15T00:37:08.423Z,16.61
2017-01-15T00:38:18.736Z,16.32
2017-01-15T00:39:29.450Z,16.23
2017-01-15T00:40:40.164Z,16.23
2017-01-15T00:41:50.886Z,16.23
2017-01-15T00:43:01.200Z,16.32
2017-01-15T00:44:11.527Z,16.23
2017-01-15T00:45:22.253Z,16.32
2017-01-15T00:46:31.785Z,16.32
2017-01-15T00:47:41.722Z,16.42
2017-01-15T00:48:52.434Z,16.52
2017-01-15T00:50:02.751Z,16.32
2017-01-15T00:51:13.070Z,16.42
2017-01-15T00:52:23.417Z,16.32
2017-01-15T00:53:34.129Z,16.23
2017-01-15T00:54:44.852Z,16.32
2017-01-15T00:55:55.562Z,16.32
2017-01-15T00:57:05.890Z,16.52
2017-01-15T00:58:16.209Z,16.52
2017-01-15T00:59:26.554Z,16.52
2017-01-15T01:00:36.887Z,16.42
2017-01-15T01:01:47.607Z,16.23
2017-01-15T01:02:58.324Z,16.61
2017-01-15T01:04:08.253Z,16.42
2017-01-15T01:05:18.986Z,16.23
2017-01-15T01:06:29.712Z,16.23
2017-01-15T01:07:40.048Z,16.23
2017-01-15T01:08:50.771Z,16.32
2017-01-15T01:10:01.511Z,16.32
2017-01-15T01:11:11.850Z,16.23
2017-01-15T01:12:22.577Z,16.32
2017-01-15T01:13:32.894Z,16.23
2017-01-15T01:14:43.621Z,16.23
2017-01-15T01:15:53.946Z,16.32
2017-01-15T01:17:04.650Z,16.32
2017-01-15T01:18:15.354Z,16.32
2017-01-15T01:19:26.096Z,16.32
2017-01-15T01:20:36.806Z,16.42
2017-01-15T01:21:47.526Z,16.32
2017-01-15T01:22:58.263Z,16.42
2017-01-15T01:24:08.590Z,16.52
2017-01-15T01:25:19.312Z,16.32
2017-01-15T01:26:30.035Z,16.42
2017-01-15T01:27:40.749Z,16.42
2017-01-15T01:28:51.069Z,16.42
2017-01-15T01:30:01.773Z,16.32
2017-01-15T01:31:12.494Z,16.42
2017-01-15T01:32:22.422Z,16.52
2017-01-15T01:33:32.730Z,16.32
2017-01-15T01:34:43.056Z,16.52
2017-01-15T01:35:53.421Z,16.32
2017-01-15T01:37:03.350Z,16.32
2017-01-15T01:38:13.680Z,16.32
2017-01-15T01:39:24.388Z,16.42
2017-01-15T01:40:34.720Z,16.42
2017-01-15T01:41:45.040Z,16.23
2017-01-15T01:42:54.974Z,16.42
2017-01-15T01:44:05.696Z,16.42
2017-01-15T01:45:15.613Z,16.42
2017-01-15T01:46:26.337Z,16.03
2017-01-15T01:47:37.058Z,16.42
2017-01-15T01:48:47.370Z,16.03
2017-01-15T01:49:57.682Z,16.13
2017-01-15T01:51:08.400Z,16.42
2017-01-15T01:52:18.327Z,16.42
2017-01-15T01:53:28.272Z,16.42
2017-01-15T01:54:38.609Z,16.42
2017-01-15T01:55:48.930Z,16.52
2017-01-15T01:56:59.255Z,16.32
2017-01-15T01:58:09.985Z,16.42
2017-01-15T01:59:19.908Z,16.32
2017-01-15T02:00:30.616Z,16.52
2017-01-15T02:01:40.568Z,16.23
2017-01-15T02:02:51.279Z,16.42
2017-01-15T02:04:01.208Z,16.32
2017-01-15T02:05:11.524Z,16.52
2017-01-15T02:06:22.264Z,16.32
2017-01-15T02:07:32.581Z,16.32
2017-01-15T02:08:43.292Z,16.32
2017-01-15T02:09:53.617Z,16.32
2017-01-15T02:11:03.554Z,16.32
2017-01-15T02:12:13.868Z,16.42
2017-01-15T02:13:23.785Z,16.42
2017-01-15T02:14:34.498Z,16.42
2017-01-15T02:15:44.796Z,16.52
2017-01-15T02:16:53.940Z,16.42
2017-01-15T02:18:04.268Z,16.52
2017-01-15T02:19:14.598Z,16.03
2017-01-15T02:20:24.912Z,16.32
2017-01-15T02:21:35.632Z,16.13
2017-01-15T02:22:45.964Z,16.23
2017-01-15T02:23:55.926Z,16.32
2017-01-15T02:25:05.850Z,16.32
2017-01-15T02:26:16.560Z,16.13
2017-01-15T02:27:27.281Z,16.23
2017-01-15T02:28:37.604Z,16.13
2017-01-15T02:29:47.949Z,16.23
2017-01-15T02:30:58.273Z,16.23
2017-01-15T02:32:08.980Z,16.03
2017-01-15T02:33:19.700Z,16.03
2017-01-15T02:34:30.434Z,16.23
2017-01-15T02:35:40.747Z,16.32
2017-01-15T02:36:51.454Z,16.42
2017-01-15T02:38:01.786Z,16.42
2017-01-15T02:39:12.126Z,16.52
2017-01-15T02:40:22.837Z,16.52
2017-01-15T02:41:32.366Z,16.42
2017-01-15T02:42:42.699Z,16.42
2017-01-15T02:43:52.636Z,16.42
2017-01-15T02:45:02.972Z,16.42
2017-01-15T02:46:13.287Z,16.42
2017-01-15T02:47:24.003Z,16.23
2017-01-15T02:48:34.917Z,16.52
2017-01-15T02:49:45.245Z,16.32
2017-01-15T02:50:55.580Z,16.42
2017-01-15T02:52:05.900Z,16.32
2017-01-15T02:53:15.834Z,16.32
2017-01-15T02:54:26.556Z,16.32
2017-01-15T02:55:36.873Z,16.32
2017-01-15T02:56:47.597Z,16.13
2017-01-15T02:57:58.317Z,16.03
2017-01-15T02:59:09.034Z,15.94
2017-01-15T03:00:18.567Z,16.23
2017-01-15T03:01:28.528Z,16.32
2017-01-15T03:02:38.839Z,16.23
2017-01-15T03:03:49.569Z,16.13
2017-01-15T03:04:59.882Z,16.32
2017-01-15T03:06:10.196Z,16.03
2017-01-15T03:07:20.539Z,15.65
2017-01-15T03:08:30.858Z,16.23
2017-01-15T03:09:41.572Z,16.13
2017-01-15T03:10:51.892Z,16.03
2017-01-15T03:12:02.212Z,15.75
2017-01-15T03:13:12.548Z,16.13
2017-01-15T03:14:22.897Z,16.23
2017-01-15T03:15:32.826Z,16.13
2017-01-15T03:16:42.750Z,16.13
2017-01-15T03:17:53.467Z,16.13
2017-01-15T03:19:04.207Z,16.13
2017-01-15T03:20:13.742Z,16.32
2017-01-15T03:21:24.445Z,16.23
2017-01-15T03:22:34.766Z,16.03
2017-01-15T03:23:45.096Z,16.13
2017-01-15T03:24:55.025Z,16.13
2017-01-15T03:26:05.339Z,16.13
2017-01-15T03:27:15.663Z,16.23
2017-01-15T03:28:26.406Z,16.23
2017-01-15T03:29:36.722Z,16.13
2017-01-15T03:30:47.042Z,16.23
2017-01-15T03:31:57.765Z,16.23
2017-01-15T03:33:08.486Z,16.13
2017-01-15T03:34:18.414Z,16.23
2017-01-15T03:35:28.331Z,16.13
2017-01-15T03:36:39.036Z,16.13
2017-01-15T03:37:49.763Z,15.94
2017-01-15T03:39:00.082Z,15.65
2017-01-15T03:40:10.799Z,16.23
2017-01-15T03:41:20.329Z,15.84
2017-01-15T03:42:31.058Z,16.23
2017-01-15T03:43:41.810Z,15.94
2017-01-15T03:44:52.140Z,15.84
2017-01-15T03:46:02.056Z,15.94
2017-01-15T03:47:12.373Z,15.84
2017-01-15T03:48:23.095Z,15.94
2017-01-15T03:49:33.804Z,15.84
2017-01-15T03:50:44.521Z,15.84
2017-01-15T03:51:55.234Z,15.84
2017-01-15T03:53:05.554Z,15.94
2017-01-15T03:54:16.264Z,15.84
2017-01-15T03:55:26.593Z,16.13
2017-01-15T03:56:36.914Z,16.13
2017-01-15T03:57:46.441Z,15.94
2017-01-15T03:58:56.748Z,16.13
2017-01-15T04:00:06.681Z,16.13
2017-01-15T04:01:17.401Z,15.94
2017-01-15T04:02:28.102Z,16.13
2017-01-15T04:03:37.624Z,15.84
2017-01-15T04:04:47.541Z,15.75
2017-01-15T04:05:58.261Z,15.84
2017-01-15T04:07:08.581Z,16.13
2017-01-15T04:08:17.710Z,15.65
2017-01-15T04:09:27.640Z,16.23
2017-01-15T04:10:38.369Z,16.13
2017-01-15T04:11:48.690Z,16.03
2017-01-15T04:12:59.400Z,16.13
2017-01-15T04:14:09.727Z,16.13
2017-01-15T04:15:20.465Z,15.94
2017-01-15T04:16:31.183Z,16.13
2017-01-15T04:17:41.502Z,15.94
2017-01-15T04:18:51.417Z,16.03
2017-01-15T04:20:01.746Z,16.03
2017-01-15T04:21:12.460Z,16.23
2017-01-15T04:22:23.164Z,15.75
2017-01-15T04:23:33.480Z,15.84
2017-01-15T04:24:43.407Z,15.84
2017-01-15T04:25:53.720Z,15.94
2017-01-15T04:27:04.034Z,16.13
2017-01-15T04:28:14.356Z,15.94
2017-01-15T04:29:24.671Z,15.75
2017-01-15T04:30:35.387Z,16.03
2017-01-15T04:31:45.306Z,15.75
2017-01-15T04:32:54.825Z,15.65
2017-01-15T04:34:05.148Z,15.94
2017-01-15T04:35:15.464Z,15.84
2017-01-15T04:36:26.207Z,15.84
2017-01-15T04:37:36.520Z,16.32
2017-01-15T04:38:46.850Z,15.65
2017-01-15T04:39:57.573Z,16.03
2017-01-15T04:41:07.883Z,16.03
2017-01-15T04:42:18.197Z,16.32
2017-01-15T04:43:28.517Z,15.75
2017-01-15T04:44:39.227Z,15.65
2017-01-15T04:45:49.947Z,16.13
2017-01-15T04:47:00.680Z,16.03
2017-01-15T04:48:10.606Z,16.23
2017-01-15T04:49:20.782Z,16.23
2017-01-15T04:50:29.905Z,16.42
2017-01-15T04:51:39.829Z,16.13
2017-01-15T04:52:50.142Z,16.32
2017-01-15T04:54:00.859Z,16.03
2017-01-15T04:55:11.180Z,16.42
2017-01-15T04:56:21.107Z,16.52
2017-01-15T04:57:31.416Z,16.42
2017-01-15T04:58:41.348Z,16.23
2017-01-15T04:59:51.663Z,16.52
2017-01-15T05:01:02.004Z,16.42
2017-01-15T05:02:11.521Z,16.03
2017-01-15T05:03:22.241Z,16.32
2017-01-15T05:04:32.964Z,16.03
2017-01-15T05:05:43.274Z,16.03
2017-01-15T05:06:53.600Z,16.13
2017-01-15T05:08:04.321Z,16.42
2017-01-15T05:09:14.634Z,16.52
2017-01-15T05:10:24.563Z,16.52
2017-01-15T05:11:34.890Z,16.32
2017-01-15T05:12:45.632Z,16.42
2017-01-15T05:13:56.339Z,16.32
2017-01-15T05:15:06.663Z,16.32
2017-01-15T05:16:16.989Z,16.32
2017-01-15T05:17:27.716Z,16.42
2017-01-15T05:18:37.674Z,16.32
2017-01-15T05:19:48.390Z,16.42
2017-01-15T05:20:59.101Z,16.32
2017-01-15T05:22:09.019Z,16.32
2017-01-15T05:23:19.740Z,16.52
2017-01-15T05:24:30.455Z,16.52
2017-01-15T05:25:41.168Z,16.42
2017-01-15T05:26:51.494Z,16.23
2017-01-15T05:28:01.807Z,16.42
2017-01-15T05:29:12.134Z,16.32
2017-01-15T05:30:22.451Z,16.23
2017-01-15T05:31:32.768Z,16.42
2017-01-15T05:32:43.084Z,16.52
2017-01-15T05:33:53.805Z,16.23
2017-01-15T05:35:04.117Z,16.52
2017-01-15T05:36:14.438Z,16.52
2017-01-15T05:37:24.754Z,16.32
2017-01-15T05:38:34.671Z,16.52
2017-01-15T05:39:45.375Z,16.23
2017-01-15T05:40:55.704Z,16.52
2017-01-15T05:42:06.018Z,16.6
2017-01-15T05:43:16.345Z,16.32
2017-01-15T05:44:26.280Z,16.42
2017-01-15T05:45:36.210Z,16.23
2017-01-15T05:46:46.526Z,16.42
2017-01-15T05:47:56.840Z,16.42
2017-01-15T05:49:07.159Z,16.23
2017-01-15T05:50:17.873Z,16.32
2017-01-15T05:51:28.190Z,16.52
2017-01-15T05:52:38.901Z,16.52
2017-01-15T05:53:49.614Z,16.61
2017-01-15T05:54:59.931Z,16.32
2017-01-15T05:56:10.641Z,16.52
2017-01-15T05:57:20.971Z,16.42
2017-01-15T05:58:31.682Z,16.42
2017-01-15T05:59:41.601Z,16.32
2017-01-15T06:00:51.915Z,16.52
2017-01-15T06:02:01.838Z,16.42
2017-01-15T06:03:12.158Z,16.32
2017-01-15T06:04:22.468Z,16.32
2017-01-15T06:05:32.773Z,16.32
2017-01-15T06:06:43.111Z,16.32
2017-01-15T06:07:53.827Z,16.42
2017-01-15T06:09:03.754Z,16.52
2017-01-15T06:10:13.671Z,16.32
2017-01-15T06:11:24.381Z,16.42
2017-01-15T06:12:34.708Z,16.42
2017-01-15T06:13:45.415Z,16.52
2017-01-15T06:14:56.122Z,16.52
2017-01-15T06:16:06.452Z,16.52
2017-01-15T06:17:16.375Z,16.42
2017-01-15T06:18:26.686Z,16.52
2017-01-15T06:19:37.017Z,16.52
2017-01-15T06:20:47.764Z,16.52
2017-01-15T06:21:57.696Z,16.52
2017-01-15T06:23:08.018Z,16.52
2017-01-15T06:24:18.349Z,16.23
2017-01-15T06:25:29.054Z,16.52
2017-01-15T06:26:39.755Z,16.23
2017-01-15T06:27:50.481Z,16.61
2017-01-15T06:29:00.007Z,16.32
2017-01-15T06:30:10.721Z,16.42
2017-01-15T06:31:21.435Z,16.42
2017-01-15T06:32:31.395Z,16.42
2017-01-15T06:33:41.707Z,16.42
2017-01-15T06:34:52.452Z,16.52
2017-01-15T06:36:03.164Z,16.52
2017-01-15T06:37:13.482Z,16.42
2017-01-15T06:38:23.796Z,16.42
2017-01-15T06:39:33.326Z,16.42
2017-01-15T06:40:43.649Z,16.42
2017-01-15T06:41:54.367Z,16.32
2017-01-15T06:43:05.086Z,16.23
2017-01-15T06:44:15.790Z,16.52
2017-01-15T06:45:26.113Z,16.52
2017-01-15T06:46:36.843Z,16.23
2017-01-15T06:47:47.166Z,16.23
2017-01-15T06:48:57.479Z,16.32
2017-01-15T06:50:07.800Z,16.52
2017-01-15T06:51:18.158Z,16.52
2017-01-15T06:52:28.484Z,16.32
2017-01-15T06:53:38.408Z,16.23
2017-01-15T06:54:49.159Z,16.52
2017-01-15T06:55:59.482Z,16.52
2017-01-15T06:57:10.196Z,16.42
2017-01-15T06:58:20.123Z,16.23
2017-01-15T06:59:29.657Z,16.23
2017-01-15T07:00:39.198Z,16.23
2017-01-15T07:01:49.128Z,16.42
2017-01-15T07:02:59.883Z,16.32
2017-01-15T07:04:09.812Z,16.42
2017-01-15T07:05:19.329Z,16.42
2017-01-15T07:06:30.052Z,16.32
2017-01-15T07:07:40.369Z,16.23
2017-01-15T07:08:50.321Z,16.32
2017-01-15T07:10:01.070Z,16.52
2017-01-15T07:11:10.616Z,16.32
2017-01-15T07:12:20.935Z,16.52
2017-01-15T07:13:31.253Z,16.23
2017-01-15T07:14:41.176Z,16.52
2017-01-15T07:15:51.128Z,16.52
2017-01-15T07:17:01.081Z,16.52
2017-01-15T07:18:10.619Z,16.61
2017-01-15T07:19:21.330Z,16.52
2017-01-15T07:20:32.061Z,16.52
2017-01-15T07:21:42.374Z,16.52
2017-01-15T07:22:52.699Z,16.52
2017-01-15T07:24:01.838Z,16.42
2017-01-15T07:25:12.568Z,16.42
2017-01-15T07:26:22.491Z,16.61
2017-01-15T07:27:33.217Z,16.61
2017-01-15T07:28:43.551Z,16.52
2017-01-15T07:29:54.277Z,16.52
2017-01-15T07:31:04.996Z,16.42
2017-01-15T07:32:15.711Z,16.32
2017-01-15T07:33:26.024Z,16.32
2017-01-15T07:34:35.954Z,16.52
2017-01-15T07:35:46.283Z,16.52
2017-01-15T07:36:56.594Z,16.61
2017-01-15T07:38:07.310Z,16.52
2017-01-15T07:39:17.247Z,16.52
2017-01-15T07:40:27.964Z,16.42
2017-01-15T07:41:37.887Z,16.52
2017-01-15T07:42:47.826Z,16.52
2017-01-15T07:43:58.140Z,16.61
2017-01-15T07:45:08.079Z,16.61
2017-01-15T07:46:18.002Z,16.61
2017-01-15T07:47:28.331Z,16.52
2017-01-15T07:48:39.061Z,16.32
2017-01-15T07:49:48.203Z,16.32
2017-01-15T07:50:58.522Z,16.42
2017-01-15T07:52:08.059Z,16.52
2017-01-15T07:53:17.588Z,16.52
2017-01-15T07:54:27.921Z,16.52
2017-01-15T07:55:38.242Z,16.52
2017-01-15T07:56:48.964Z,16.42
2017-01-15T07:57:59.690Z,16.42
2017-01-15T07:59:09.617Z,16.42
2017-01-15T08:00:20.346Z,16.61
2017-01-15T08:01:31.076Z,16.52
2017-01-15T08:02:41.805Z,16.52
2017-01-15T08:03:52.128Z,16.52
2017-01-15T08:05:02.463Z,16.32
2017-01-15T08:06:12.788Z,16.42
2017-01-15T08:07:23.127Z,16.42
2017-01-15T08:08:33.450Z,16.32
2017-01-15T08:09:44.157Z,16.42
2017-01-15T08:10:54.484Z,16.71
2017-01-15T08:12:04.410Z,16.71
2017-01-15T08:13:14.734Z,16.61
2017-01-15T08:14:25.069Z,16.32
2017-01-15T08:15:35.396Z,16.42
2017-01-15T08:16:45.728Z,16.42
2017-01-15T08:17:56.052Z,16.71
2017-01-15T08:19:06.793Z,16.42
2017-01-15T08:20:15.932Z,16.52
2017-01-15T08:21:26.666Z,16.52
2017-01-15T08:22:36.985Z,16.23
2017-01-15T08:23:47.719Z,16.32
2017-01-15T08:24:58.434Z,16.52
2017-01-15T08:26:09.153Z,16.61
2017-01-15T08:27:19.082Z,16.32
2017-01-15T08:28:29.793Z,16.42
2017-01-15T08:29:40.542Z,16.32
2017-01-15T08:30:50.478Z,16.42
2017-01-15T08:32:00.807Z,16.42
2017-01-15T08:33:10.254Z,16.52
2017-01-15T08:34:20.967Z,16.42
2017-01-15T08:35:31.688Z,16.32
2017-01-15T08:36:41.617Z,16.42
2017-01-15T08:37:51.553Z,16.52
2017-01-15T08:39:01.889Z,16.52
2017-01-15T08:40:12.214Z,16.52
2017-01-15T08:41:22.942Z,16.32
2017-01-15T08:42:33.294Z,16.71
2017-01-15T08:43:44.007Z,16.42
2017-01-15T08:44:53.930Z,16.42
2017-01-15T08:46:04.659Z,16.61
2017-01-15T08:47:14.603Z,16.52
2017-01-15T08:48:24.928Z,16.52
2017-01-15T08:49:35.637Z,16.42
2017-01-15T08:50:46.376Z,16.52
2017-01-15T08:51:57.109Z,16.42
2017-01-15T08:53:07.047Z,16.32
2017-01-15T08:54:17.367Z,16.52
2017-01-15T08:55:27.322Z,16.52
2017-01-15T08:56:37.655Z,16.71
2017-01-15T08:57:48.381Z,16.71
2017-01-15T08:58:57.937Z,16.8
2017-01-15T09:00:08.708Z,16.71
2017-01-15T09:01:18.791Z,16.32
2017-01-15T09:02:29.538Z,16.61
2017-01-15T09:03:39.916Z,16.61
2017-01-15T09:04:50.654Z,16.52
2017-01-15T09:06:00.600Z,16.32
2017-01-15T09:07:11.339Z,16.42
2017-01-15T09:08:22.047Z,16.32
2017-01-15T09:09:32.384Z,16.32
2017-01-15T09:10:43.306Z,16.42
2017-01-15T09:11:53.649Z,16.52
2017-01-15T09:13:04.376Z,16.52
2017-01-15T09:14:14.705Z,16.71
2017-01-15T09:15:25.038Z,16.71
2017-01-15T09:16:35.377Z,16.32
2017-01-15T09:17:46.130Z,16.61
2017-01-15T09:18:55.676Z,16.8
2017-01-15T09:20:06.391Z,16.8
2017-01-15T09:21:16.732Z,16.71
2017-01-15T09:22:26.692Z,16.61
2017-01-15T09:23:37.033Z,16.32
2017-01-15T09:24:47.745Z,16.42
2017-01-15T09:25:57.284Z,16.42
2017-01-15T09:27:08.002Z,16.52
2017-01-15T09:28:18.735Z,16.42
2017-01-15T09:29:28.670Z,16.32
2017-01-15T09:30:39.390Z,16.42
2017-01-15T09:31:50.109Z,16.32
2017-01-15T09:33:00.426Z,16.32
2017-01-15T09:34:11.157Z,16.71
2017-01-15T09:35:21.483Z,16.71
2017-01-15T09:36:31.810Z,16.8
2017-01-15T09:37:41.739Z,16.9
2017-01-15T09:38:52.459Z,16.8
2017-01-15T09:40:02.779Z,16.71
2017-01-15T09:41:12.735Z,16.8
2017-01-15T09:42:22.706Z,16.8
2017-01-15T09:43:33.032Z,16.8
2017-01-15T09:44:43.352Z,16.8
2017-01-15T09:45:53.682Z,16.52
2017-01-15T09:47:04.028Z,16.71
2017-01-15T09:48:14.354Z,16.52
2017-01-15T09:49:25.341Z,16.32
2017-01-15T09:50:35.667Z,16.32
2017-01-15T09:51:46.009Z,16.52
2017-01-15T09:52:56.341Z,16.52
2017-01-15T09:54:07.062Z,16.52
2017-01-15T09:55:17.785Z,16.52
2017-01-15T09:56:27.327Z,16.61
2017-01-15T09:57:38.069Z,16.8
2017-01-15T09:58:48.796Z,16.8
2017-01-15T09:59:59.123Z,16.8
2017-01-15T10:01:09.849Z,16.8
2017-01-15T10:02:20.576Z,16.8
2017-01-15T10:03:30.912Z,16.8
2017-01-15T10:04:40.857Z,16.9
2017-01-15T10:05:51.190Z,16.71
2017-01-15T10:07:01.919Z,16.61
2017-01-15T10:08:12.237Z,16.61
2017-01-15T10:09:22.569Z,16.9
2017-01-15T10:10:33.305Z,16.9
2017-01-15T10:11:44.040Z,16.9
2017-01-15T10:12:53.977Z,16.71
2017-01-15T10:14:04.692Z,16.9
2017-01-15T10:15:14.638Z,16.71
2017-01-15T10:16:25.380Z,16.71
2017-01-15T10:17:35.716Z,16.61
2017-01-15T10:18:45.665Z,16.8
2017-01-15T10:19:56.411Z,16.8
2017-01-15T10:21:06.756Z,16.71
2017-01-15T10:22:17.104Z,16.8
2017-01-15T10:23:27.486Z,16.61
2017-01-15T10:24:37.457Z,16.8
2017-01-15T10:25:47.387Z,16.71
2017-01-15T10:26:58.123Z,16.8
2017-01-15T10:28:08.863Z,16.8
2017-01-15T10:29:19.189Z,16.71
2017-01-15T10:30:29.522Z,16.8
2017-01-15T10:31:39.861Z,16.71
2017-01-15T10:32:50.589Z,16.61
2017-01-15T10:34:00.927Z,16.8
2017-01-15T10:35:10.873Z,16.61
2017-01-15T10:36:20.820Z,16.9
2017-01-15T10:37:31.124Z,16.61
2017-01-15T10:38:41.045Z,16.8
2017-01-15T10:39:51.744Z,16.8
2017-01-15T10:41:02.095Z,16.8
2017-01-15T10:42:12.012Z,16.8
2017-01-15T10:43:22.706Z,16.8
2017-01-15T10:44:33.403Z,16.71
2017-01-15T10:45:43.717Z,16.8
2017-01-15T10:46:53.624Z,16.8
2017-01-15T10:48:04.358Z,16.71
2017-01-15T10:49:15.081Z,16.71
2017-01-15T10:50:25.794Z,16.71
2017-01-15T10:51:35.729Z,16.61
2017-01-15T10:52:46.868Z,16.71
2017-01-15T10:53:57.612Z,16.71
2017-01-15T10:55:08.356Z,16.71
2017-01-15T10:56:19.087Z,16.8
2017-01-15T10:57:28.645Z,16.8
2017-01-15T10:58:39.394Z,16.71
2017-01-15T10:59:49.725Z,16.61
2017-01-15T11:01:00.034Z,16.71
2017-01-15T11:02:10.354Z,16.71
2017-01-15T11:03:20.706Z,16.8
2017-01-15T11:04:31.447Z,16.61
2017-01-15T11:05:42.166Z,16.71
2017-01-15T11:06:52.527Z,16.61
2017-01-15T11:08:02.473Z,16.61
2017-01-15T11:09:12.794Z,16.61
2017-01-15T11:10:23.130Z,16.61
2017-01-15T11:11:33.465Z,16.61
2017-01-15T11:12:44.201Z,16.71
2017-01-15T11:13:54.926Z,16.8
2017-01-15T11:15:04.874Z,16.8
2017-01-15T11:16:15.591Z,16.8
2017-01-15T11:17:26.328Z,16.8
2017-01-15T11:18:37.055Z,16.61
2017-01-15T11:19:47.380Z,16.61
2017-01-15T11:20:57.736Z,16.61
2017-01-15T11:22:07.675Z,16.8
2017-01-15T11:23:18.394Z,16.61
2017-01-15T11:24:28.732Z,16.71
2017-01-15T11:25:39.431Z,16.9
2017-01-15T11:26:48.965Z,16.99
2017-01-15T11:27:58.950Z,16.8
2017-01-15T11:29:09.271Z,16.61
2017-01-15T11:30:19.998Z,16.61
2017-01-15T11:31:30.723Z,16.71
2017-01-15T11:32:40.670Z,16.8
2017-01-15T11:33:51.413Z,16.71
2017-01-15T11:35:01.759Z,16.71
2017-01-15T11:36:12.479Z,16.8
2017-01-15T11:37:22.419Z,16.61
2017-01-15T11:38:32.781Z,16.8
2017-01-15T11:39:43.494Z,16.61
2017-01-15T11:40:53.830Z,16.61
2017-01-15T11:42:04.179Z,16.71
2017-01-15T11:43:14.900Z,16.8
2017-01-15T11:44:25.225Z,16.71
2017-01-15T11:45:35.981Z,16.8
2017-01-15T11:46:45.933Z,16.8
2017-01-15T11:47:55.866Z,16.8
2017-01-15T11:49:06.210Z,16.71
2017-01-15T11:50:16.955Z,16.61
2017-01-15T11:51:27.266Z,16.9
2017-01-15T11:52:37.985Z,16.61
2017-01-15T11:53:48.282Z,16.61
2017-01-15T11:54:58.218Z,16.61
2017-01-15T11:56:08.555Z,16.8
2017-01-15T11:57:19.282Z,16.8
2017-01-15T11:58:30.036Z,16.8
2017-01-15T11:59:40.372Z,16.71
2017-01-15T12:00:51.096Z,16.99
2017-01-15T12:02:01.429Z,16.99
2017-01-15T12:03:11.756Z,16.8
2017-01-15T12:04:22.092Z,16.8
2017-01-15T12:05:32.418Z,16.61
2017-01-15T12:06:41.954Z,16.8
2017-01-15T12:07:52.700Z,16.71
2017-01-15T12:09:02.628Z,16.8
2017-01-15T12:10:13.373Z,16.71
2017-01-15T12:11:24.094Z,16.8
2017-01-15T12:12:34.813Z,16.8
2017-01-15T12:13:44.733Z,16.71
2017-01-15T12:14:55.056Z,16.9
2017-01-15T12:16:05.408Z,16.71
2017-01-15T12:17:16.154Z,16.8
2017-01-15T12:18:26.487Z,16.61
2017-01-15T12:19:37.239Z,16.61
2017-01-15T12:20:47.958Z,16.61
2017-01-15T12:21:58.644Z,16.61
2017-01-15T12:23:08.558Z,16.61
2017-01-15T12:24:18.079Z,16.61
2017-01-15T12:25:28.382Z,16.61
2017-01-15T12:26:38.305Z,16.71
2017-01-15T12:27:48.631Z,16.8
2017-01-15T12:28:58.959Z,16.71
2017-01-15T12:30:09.281Z,16.61
2017-01-15T12:31:19.594Z,16.8
2017-01-15T12:32:30.333Z,16.8
2017-01-15T12:33:40.680Z,16.61
2017-01-15T12:34:50.592Z,16.8
2017-01-15T12:36:01.329Z,16.8
2017-01-15T12:37:11.272Z,16.9
2017-01-15T12:38:21.593Z,16.99
2017-01-15T12:39:31.526Z,16.99
2017-01-15T12:40:41.855Z,16.99
2017-01-15T12:41:52.600Z,16.9
2017-01-15T12:43:03.342Z,16.99
2017-01-15T12:44:13.301Z,17.09
2017-01-15T12:45:23.631Z,17.09
2017-01-15T12:46:33.954Z,16.99
2017-01-15T12:47:43.474Z,17.09
2017-01-15T12:48:54.177Z,16.9
2017-01-15T12:50:04.089Z,16.8
2017-01-15T12:51:14.432Z,16.99
2017-01-15T12:52:24.338Z,17.19
2017-01-15T12:53:34.658Z,16.9
2017-01-15T12:54:45.405Z,16.71
2017-01-15T12:55:55.753Z,16.71
2017-01-15T12:57:04.885Z,16.99
2017-01-15T12:58:15.588Z,16.71
2017-01-15T12:59:26.315Z,16.99
2017-01-15T13:00:36.685Z,16.99
2017-01-15T13:01:47.397Z,16.9
2017-01-15T13:02:57.739Z,17.09
2017-01-15T13:04:08.059Z,16.9
2017-01-15T13:05:18.381Z,17.09
2017-01-15T13:06:29.121Z,16.99
2017-01-15T13:07:39.464Z,16.71
2017-01-15T13:08:49.776Z,16.71
2017-01-15T13:10:00.495Z,16.71
2017-01-15T13:11:10.413Z,16.71
2017-01-15T13:12:20.741Z,16.8
2017-01-15T13:13:31.453Z,16.71
2017-01-15T13:14:41.816Z,16.71
2017-01-15T13:15:52.538Z,16.99
2017-01-15T13:17:03.283Z,16.99
2017-01-15T13:18:14.008Z,16.8
2017-01-15T13:19:24.354Z,16.9
2017-01-15T13:20:34.670Z,16.71
2017-01-15T13:21:45.003Z,16.9
2017-01-15T13:22:55.230Z,17.38
2017-01-15T13:24:05.563Z,17.47
2017-01-15T13:25:15.880Z,16.99
2017-01-15T13:26:25.450Z,17.18
2017-01-15T13:27:35.374Z,17.08
2017-01-15T13:28:45.712Z,17.19
2017-01-15T13:29:56.444Z,17.18
2017-01-15T13:31:06.753Z,16.99
2017-01-15T13:32:17.485Z,17.19
2017-01-15T13:33:27.415Z,17.47
2017-01-15T13:34:37.768Z,17.37
2017-01-15T13:35:48.481Z,17.29
2017-01-15T13:36:58.824Z,16.99
2017-01-15T13:38:09.127Z,17.29
2017-01-15T13:39:20.202Z,17.38
2017-01-15T13:40:30.129Z,17.29
2017-01-15T13:41:40.854Z,17.47
2017-01-15T13:42:51.183Z,17.27
2017-01-15T13:44:01.131Z,16.99
2017-01-15T13:45:11.891Z,16.9
2017-01-15T13:46:22.212Z,16.9
2017-01-15T13:47:31.726Z,17.09
2017-01-15T13:48:42.448Z,16.9
2017-01-15T13:49:52.426Z,17.19
2017-01-15T13:51:02.787Z,16.8
2017-01-15T13:52:13.155Z,16.71
2017-01-15T13:53:23.897Z,16.99
2017-01-15T13:54:34.631Z,16.99
2017-01-15T13:55:44.965Z,16.8
2017-01-15T13:56:54.904Z,16.8
2017-01-15T13:58:05.658Z,16.9
2017-01-15T13:59:16.411Z,16.8
2017-01-15T14:00:26.753Z,16.8
2017-01-15T14:01:37.078Z,16.9
2017-01-15T14:02:46.206Z,16.8
2017-01-15T14:03:56.960Z,16.99
2017-01-15T14:05:07.712Z,16.99
2017-01-15T14:06:18.426Z,16.9
2017-01-15T14:07:29.146Z,16.9
2017-01-15T14:08:39.451Z,16.8
2017-01-15T14:09:50.192Z,16.9
2017-01-15T14:11:01.034Z,17.19
2017-01-15T14:12:11.343Z,16.99
2017-01-15T14:13:21.278Z,16.9
2017-01-15T14:14:32.022Z,16.71
2017-01-15T14:15:42.767Z,16.8
2017-01-15T14:16:53.489Z,16.99
2017-01-15T14:18:03.813Z,16.8
2017-01-15T14:19:13.749Z,16.99
2017-01-15T14:20:24.089Z,16.71
2017-01-15T14:21:34.808Z,16.71
2017-01-15T14:22:45.528Z,16.9
2017-01-15T14:23:55.875Z,16.9
2017-01-15T14:25:05.783Z,16.9
2017-01-15T14:26:15.314Z,17.09
2017-01-15T14:27:25.636Z,17.09
2017-01-15T14:28:35.562Z,16.9
2017-01-15T14:29:45.893Z,16.9
2017-01-15T14:30:56.633Z,16.9
2017-01-15T14:32:06.601Z,16.9
2017-01-15T14:33:16.933Z,16.8
2017-01-15T14:34:27.300Z,16.9
2017-01-15T14:35:38.057Z,16.9
2017-01-15T14:36:48.782Z,16.9
2017-01-15T14:37:59.518Z,16.99
2017-01-15T14:39:09.447Z,16.99
2017-01-15T14:40:19.588Z,16.9
2017-01-15T14:41:29.910Z,16.99
2017-01-15T14:42:40.657Z,16.9
2017-01-15T14:43:51.421Z,16.9
2017-01-15T14:45:02.143Z,16.99
2017-01-15T14:46:12.119Z,16.9
2017-01-15T14:47:22.846Z,16.8
2017-01-15T14:48:33.181Z,16.99
2017-01-15T14:49:43.525Z,16.9
2017-01-15T14:50:54.253Z,16.9
2017-01-15T14:52:04.584Z,16.99
2017-01-15T14:53:14.952Z,16.9
2017-01-15T14:54:25.698Z,16.99
2017-01-15T14:55:35.244Z,16.9
2017-01-15T14:56:45.582Z,16.9
2017-01-15T14:57:55.909Z,16.9
2017-01-15T14:59:06.658Z,16.71
2017-01-15T15:00:16.209Z,17.09
2017-01-15T15:01:26.926Z,16.71
2017-01-15T15:02:37.647Z,16.71
2017-01-15T15:03:47.977Z,16.8
2017-01-15T15:04:58.319Z,16.8
2017-01-15T15:06:08.640Z,16.71
2017-01-15T15:07:19.003Z,16.8
2017-01-15T15:08:29.353Z,16.99
2017-01-15T15:09:40.083Z,16.8
2017-01-15T15:10:50.026Z,17.19